sensor_id;sensor_type;location;lat;lon;timestamp;temperature;humidity
77056;SHT30;67471;44.918;8.614;2023-11-18T00:00:35;8.25;59.47
77056;SHT30;67471;44.918;8.614;2023-11-18T00:03:39;8.16;59.99
77056;SHT30;67471;44.918;8.614;2023-11-18T00:06:44;8.22;60.13
77056;SHT30;67471;44.918;8.614;2023-11-18T00:09:48;8.19;60.42
77056;SHT30;67471;44.918;8.614;2023-11-18T00:12:51;8.08;60.46
77056;SHT30;67471;44.918;8.614;2023-11-18T00:15:55;8.15;60.29
77056;SHT30;67471;44.918;8.614;2023-11-18T00:19:00;8.08;60.23
77056;SHT30;67471;44.918;8.614;2023-11-18T00:22:04;8.05;60.45
77056;SHT30;67471;44.918;8.614;2023-11-18T00:25:09;7.97;60.95
77056;SHT30;67471;44.918;8.614;2023-11-18T00:28:14;7.99;61.32
77056;SHT30;67471;44.918;8.614;2023-11-18T00:31:18;8.02;61.05
77056;SHT30;67471;44.918;8.614;2023-11-18T00:34:22;8.11;61.06
77056;SHT30;67471;44.918;8.614;2023-11-18T00:37:25;7.99;61.45
77056;SHT30;67471;44.918;8.614;2023-11-18T00:40:29;7.95;61.90
77056;SHT30;67471;44.918;8.614;2023-11-18T00:43:35;7.80;62.30
77056;SHT30;67471;44.918;8.614;2023-11-18T00:46:39;7.81;62.47
77056;SHT30;67471;44.918;8.614;2023-11-18T00:49:43;7.69;62.60
77056;SHT30;67471;44.918;8.614;2023-11-18T00:52:47;7.84;62.02
77056;SHT30;67471;44.918;8.614;2023-11-18T00:55:53;7.82;62.50
77056;SHT30;67471;44.918;8.614;2023-11-18T00:58:57;7.74;62.53
77056;SHT30;67471;44.918;8.614;2023-11-18T01:02:01;7.85;62.33
77056;SHT30;67471;44.918;8.614;2023-11-18T01:05:07;7.81;62.57
77056;SHT30;67471;44.918;8.614;2023-11-18T01:08:15;7.85;62.35
77056;SHT30;67471;44.918;8.614;2023-11-18T01:11:19;7.81;61.73
77056;SHT30;67471;44.918;8.614;2023-11-18T01:14:23;7.74;62.06
77056;SHT30;67471;44.918;8.614;2023-11-18T01:17:26;7.78;62.12
77056;SHT30;67471;44.918;8.614;2023-11-18T01:20:30;7.82;62.14
77056;SHT30;67471;44.918;8.614;2023-11-18T01:23:38;7.84;61.95
77056;SHT30;67471;44.918;8.614;2023-11-18T01:26:42;7.90;61.99
77056;SHT30;67471;44.918;8.614;2023-11-18T01:29:46;7.84;61.84
77056;SHT30;67471;44.918;8.614;2023-11-18T01:32:52;7.85;62.02
77056;SHT30;67471;44.918;8.614;2023-11-18T01:35:56;7.90;62.33
77056;SHT30;67471;44.918;8.614;2023-11-18T01:39:00;7.87;62.81
77056;SHT30;67471;44.918;8.614;2023-11-18T01:42:03;7.88;62.50
77056;SHT30;67471;44.918;8.614;2023-11-18T01:45:08;7.88;63.22
77056;SHT30;67471;44.918;8.614;2023-11-18T01:48:16;7.74;63.99
77056;SHT30;67471;44.918;8.614;2023-11-18T01:51:20;7.74;64.04
77056;SHT30;67471;44.918;8.614;2023-11-18T01:54:26;7.66;64.28
77056;SHT30;67471;44.918;8.614;2023-11-18T01:57:30;7.51;64.53
77056;SHT30;67471;44.918;8.614;2023-11-18T02:00:36;7.39;64.75
77056;SHT30;67471;44.918;8.614;2023-11-18T02:03:43;7.22;64.80
77056;SHT30;67471;44.918;8.614;2023-11-18T02:06:48;7.10;65.15
77056;SHT30;67471;44.918;8.614;2023-11-18T02:09:52;6.98;65.26
77056;SHT30;67471;44.918;8.614;2023-11-18T02:16:12;6.92;65.14
77056;SHT30;67471;44.918;8.614;2023-11-18T02:19:24;6.71;66.00
77056;SHT30;67471;44.918;8.614;2023-11-18T02:22:28;6.75;65.98
77056;SHT30;67471;44.918;8.614;2023-11-18T02:25:33;6.50;67.09
77056;SHT30;67471;44.918;8.614;2023-11-18T02:28:37;6.21;67.51
77056;SHT30;67471;44.918;8.614;2023-11-18T02:31:43;6.26;67.80
77056;SHT30;67471;44.918;8.614;2023-11-18T02:34:53;6.37;67.52
77056;SHT30;67471;44.918;8.614;2023-11-18T02:38:01;6.40;67.64
77056;SHT30;67471;44.918;8.614;2023-11-18T02:41:11;6.64;67.12
77056;SHT30;67471;44.918;8.614;2023-11-18T02:44:17;6.47;68.83
77056;SHT30;67471;44.918;8.614;2023-11-18T02:47:21;6.50;68.88
77056;SHT30;67471;44.918;8.614;2023-11-18T02:50:26;6.41;68.81
77056;SHT30;67471;44.918;8.614;2023-11-18T02:53:30;6.37;68.58
77056;SHT30;67471;44.918;8.614;2023-11-18T02:56:34;6.24;68.96
77056;SHT30;67471;44.918;8.614;2023-11-18T02:59:38;6.23;68.62
77056;SHT30;67471;44.918;8.614;2023-11-18T03:02:43;6.24;68.58
77056;SHT30;67471;44.918;8.614;2023-11-18T03:05:47;6.27;68.61
77056;SHT30;67471;44.918;8.614;2023-11-18T03:08:53;6.38;68.21
77056;SHT30;67471;44.918;8.614;2023-11-18T03:11:57;6.30;68.15
77056;SHT30;67471;44.918;8.614;2023-11-18T03:15:05;6.37;68.09
77056;SHT30;67471;44.918;8.614;2023-11-18T03:18:09;6.26;68.60
77056;SHT30;67471;44.918;8.614;2023-11-18T03:21:13;6.31;69.02
77056;SHT30;67471;44.918;8.614;2023-11-18T03:24:17;6.27;68.77
77056;SHT30;67471;44.918;8.614;2023-11-18T03:27:21;6.24;69.21
77056;SHT30;67471;44.918;8.614;2023-11-18T03:30:26;6.24;69.08
77056;SHT30;67471;44.918;8.614;2023-11-18T03:33:33;6.24;69.06
77056;SHT30;67471;44.918;8.614;2023-11-18T03:36:36;6.34;68.72
77056;SHT30;67471;44.918;8.614;2023-11-18T03:39:40;6.23;69.32
77056;SHT30;67471;44.918;8.614;2023-11-18T03:42:44;6.27;68.96
77056;SHT30;67471;44.918;8.614;2023-11-18T03:45:51;6.26;69.54
77056;SHT30;67471;44.918;8.614;2023-11-18T03:49:00;6.23;69.77
77056;SHT30;67471;44.918;8.614;2023-11-18T03:52:04;6.09;70.05
77056;SHT30;67471;44.918;8.614;2023-11-18T03:55:09;6.02;69.96
77056;SHT30;67471;44.918;8.614;2023-11-18T03:58:12;6.06;69.59
77056;SHT30;67471;44.918;8.614;2023-11-18T04:01:23;5.96;70.13
77056;SHT30;67471;44.918;8.614;2023-11-18T04:04:29;6.02;70.04
77056;SHT30;67471;44.918;8.614;2023-11-18T04:07:32;6.02;69.91
77056;SHT30;67471;44.918;8.614;2023-11-18T04:10:36;5.98;69.81
77056;SHT30;67471;44.918;8.614;2023-11-18T04:13:41;5.85;70.30
77056;SHT30;67471;44.918;8.614;2023-11-18T04:16:48;5.80;69.98
77056;SHT30;67471;44.918;8.614;2023-11-18T04:19:53;5.71;70.42
77056;SHT30;67471;44.918;8.614;2023-11-18T04:22:59;5.68;70.76
77056;SHT30;67471;44.918;8.614;2023-11-18T04:26:07;5.63;70.66
77056;SHT30;67471;44.918;8.614;2023-11-18T04:29:10;5.61;70.95
77056;SHT30;67471;44.918;8.614;2023-11-18T04:32:14;5.48;71.38
77056;SHT30;67471;44.918;8.614;2023-11-18T04:35:18;5.49;71.37
77056;SHT30;67471;44.918;8.614;2023-11-18T04:38:23;5.35;72.08
77056;SHT30;67471;44.918;8.614;2023-11-18T04:41:26;5.34;71.78
77056;SHT30;67471;44.918;8.614;2023-11-18T04:44:30;5.23;71.57
77056;SHT30;67471;44.918;8.614;2023-11-18T04:47:35;5.30;71.64
77056;SHT30;67471;44.918;8.614;2023-11-18T04:50:43;5.20;71.98
77056;SHT30;67471;44.918;8.614;2023-11-18T04:53:47;5.21;71.97
77056;SHT30;67471;44.918;8.614;2023-11-18T04:56:51;5.27;71.11
77056;SHT30;67471;44.918;8.614;2023-11-18T04:59:55;5.20;71.18
77056;SHT30;67471;44.918;8.614;2023-11-18T05:02:59;5.16;71.49
77056;SHT30;67471;44.918;8.614;2023-11-18T05:06:03;5.18;71.15
77056;SHT30;67471;44.918;8.614;2023-11-18T05:09:08;5.03;71.28
77056;SHT30;67471;44.918;8.614;2023-11-18T05:12:11;5.00;71.47
77056;SHT30;67471;44.918;8.614;2023-11-18T05:15:15;5.09;71.18
77056;SHT30;67471;44.918;8.614;2023-11-18T05:18:19;5.03;71.53
77056;SHT30;67471;44.918;8.614;2023-11-18T05:21:22;5.03;71.27
77056;SHT30;67471;44.918;8.614;2023-11-18T05:24:26;4.83;72.27
77056;SHT30;67471;44.918;8.614;2023-11-18T05:27:31;4.83;71.92
77056;SHT30;67471;44.918;8.614;2023-11-18T05:30:35;4.83;72.39
77056;SHT30;67471;44.918;8.614;2023-11-18T05:33:39;4.80;72.19
77056;SHT30;67471;44.918;8.614;2023-11-18T05:36:43;4.86;72.36
77056;SHT30;67471;44.918;8.614;2023-11-18T05:39:47;4.90;71.87
77056;SHT30;67471;44.918;8.614;2023-11-18T05:42:56;4.86;72.33
77056;SHT30;67471;44.918;8.614;2023-11-18T05:46:03;4.86;72.35
77056;SHT30;67471;44.918;8.614;2023-11-18T05:49:28;4.86;72.32
77056;SHT30;67471;44.918;8.614;2023-11-18T05:52:32;4.77;73.09
77056;SHT30;67471;44.918;8.614;2023-11-18T05:55:36;4.86;72.68
77056;SHT30;67471;44.918;8.614;2023-11-18T05:58:39;4.83;72.44
77056;SHT30;67471;44.918;8.614;2023-11-18T06:01:43;4.72;72.39
77056;SHT30;67471;44.918;8.614;2023-11-18T06:04:47;4.68;73.13
77056;SHT30;67471;44.918;8.614;2023-11-18T06:07:51;4.77;72.72
77056;SHT30;67471;44.918;8.614;2023-11-18T06:10:55;4.63;72.97
77056;SHT30;67471;44.918;8.614;2023-11-18T06:13:59;4.65;73.10
77056;SHT30;67471;44.918;8.614;2023-11-18T06:17:04;4.68;72.24
77056;SHT30;67471;44.918;8.614;2023-11-18T06:20:11;4.66;72.17
77056;SHT30;67471;44.918;8.614;2023-11-18T06:23:14;4.62;72.67
77056;SHT30;67471;44.918;8.614;2023-11-18T06:26:22;4.65;71.94
77056;SHT30;67471;44.918;8.614;2023-11-18T06:29:25;4.65;72.04
77056;SHT30;67471;44.918;8.614;2023-11-18T06:32:29;4.68;72.60
77056;SHT30;67471;44.918;8.614;2023-11-18T06:35:34;4.59;72.89
77056;SHT30;67471;44.918;8.614;2023-11-18T06:38:39;4.62;73.38
77056;SHT30;67471;44.918;8.614;2023-11-18T06:41:43;4.60;73.22
77056;SHT30;67471;44.918;8.614;2023-11-18T06:44:51;4.50;72.82
77056;SHT30;67471;44.918;8.614;2023-11-18T06:47:55;4.50;72.32
77056;SHT30;67471;44.918;8.614;2023-11-18T06:50:59;4.60;71.56
77056;SHT30;67471;44.918;8.614;2023-11-18T06:54:04;4.94;71.27
77056;SHT30;67471;44.918;8.614;2023-11-18T06:57:16;6.99;64.70
77056;SHT30;67471;44.918;8.614;2023-11-18T07:00:22;9.25;57.41
77056;SHT30;67471;44.918;8.614;2023-11-18T07:03:25;11.03;51.87
77056;SHT30;67471;44.918;8.614;2023-11-18T07:06:29;12.52;47.89
77056;SHT30;67471;44.918;8.614;2023-11-18T07:09:33;13.92;44.61
77056;SHT30;67471;44.918;8.614;2023-11-18T07:12:39;14.91;41.63
77056;SHT30;67471;44.918;8.614;2023-11-18T07:15:43;15.53;40.51
77056;SHT30;67471;44.918;8.614;2023-11-18T07:18:47;16.51;38.62
77056;SHT30;67471;44.918;8.614;2023-11-18T07:21:50;17.34;37.30
77056;SHT30;67471;44.918;8.614;2023-11-18T07:24:54;17.99;35.49
77056;SHT30;67471;44.918;8.614;2023-11-18T07:27:58;17.59;36.11
77056;SHT30;67471;44.918;8.614;2023-11-18T07:31:03;18.83;33.72
77056;SHT30;67471;44.918;8.614;2023-11-18T07:34:08;19.48;33.08
77056;SHT30;67471;44.918;8.614;2023-11-18T07:37:12;20.16;32.19
77056;SHT30;67471;44.918;8.614;2023-11-18T07:40:16;20.38;31.93
77056;SHT30;67471;44.918;8.614;2023-11-18T07:43:25;20.62;31.43
77056;SHT30;67471;44.918;8.614;2023-11-18T07:46:30;20.78;30.91
77056;SHT30;67471;44.918;8.614;2023-11-18T07:49:35;21.38;30.31
77056;SHT30;67471;44.918;8.614;2023-11-18T07:52:40;21.89;29.59
77056;SHT30;67471;44.918;8.614;2023-11-18T07:55:44;21.62;30.04
77056;SHT30;67471;44.918;8.614;2023-11-18T07:58:48;21.69;29.91
77056;SHT30;67471;44.918;8.614;2023-11-18T08:01:52;21.88;29.29
77056;SHT30;67471;44.918;8.614;2023-11-18T08:04:57;22.45;28.75
77056;SHT30;67471;44.918;8.614;2023-11-18T08:08:01;22.53;28.41
77056;SHT30;67471;44.918;8.614;2023-11-18T08:11:06;23.10;27.49
77056;SHT30;67471;44.918;8.614;2023-11-18T08:14:09;23.08;27.03
77056;SHT30;67471;44.918;8.614;2023-11-18T08:17:13;22.84;27.46
77056;SHT30;67471;44.918;8.614;2023-11-18T08:20:17;22.68;27.52
77056;SHT30;67471;44.918;8.614;2023-11-18T08:23:21;22.78;27.37
77056;SHT30;67471;44.918;8.614;2023-11-18T08:26:25;23.41;26.73
77056;SHT30;67471;44.918;8.614;2023-11-18T08:29:29;23.19;27.14
77056;SHT30;67471;44.918;8.614;2023-11-18T08:32:35;23.39;26.86
77056;SHT30;67471;44.918;8.614;2023-11-18T08:35:39;23.41;26.81
77056;SHT30;67471;44.918;8.614;2023-11-18T08:38:45;22.88;26.93
77056;SHT30;67471;44.918;8.614;2023-11-18T08:41:50;22.93;26.90
77056;SHT30;67471;44.918;8.614;2023-11-18T08:44:55;23.01;26.98
77056;SHT30;67471;44.918;8.614;2023-11-18T08:48:01;22.46;27.52
77056;SHT30;67471;44.918;8.614;2023-11-18T08:51:08;22.56;27.35
77056;SHT30;67471;44.918;8.614;2023-11-18T08:54:13;22.33;27.99
77056;SHT30;67471;44.918;8.614;2023-11-18T08:57:25;22.29;28.45
77056;SHT30;67471;44.918;8.614;2023-11-18T09:00:31;22.32;28.19
77056;SHT30;67471;44.918;8.614;2023-11-18T09:03:56;21.89;28.68
77056;SHT30;67471;44.918;8.614;2023-11-18T09:07:00;21.48;29.56
77056;SHT30;67471;44.918;8.614;2023-11-18T09:10:04;21.54;29.48
77056;SHT30;67471;44.918;8.614;2023-11-18T09:13:07;20.32;30.75
77056;SHT30;67471;44.918;8.614;2023-11-18T09:16:11;20.01;31.85
77056;SHT30;67471;44.918;8.614;2023-11-18T09:19:15;19.74;32.51
77056;SHT30;67471;44.918;8.614;2023-11-18T09:22:19;19.67;32.88
77056;SHT30;67471;44.918;8.614;2023-11-18T09:25:22;19.48;33.67
77056;SHT30;67471;44.918;8.614;2023-11-18T09:28:27;19.33;33.41
77056;SHT30;67471;44.918;8.614;2023-11-18T09:31:35;18.58;34.66
77056;SHT30;67471;44.918;8.614;2023-11-18T09:34:40;18.75;34.58
77056;SHT30;67471;44.918;8.614;2023-11-18T09:37:44;18.43;34.50
77056;SHT30;67471;44.918;8.614;2023-11-18T09:40:49;17.89;35.66
77056;SHT30;67471;44.918;8.614;2023-11-18T09:43:56;17.90;36.18
77056;SHT30;67471;44.918;8.614;2023-11-18T09:47:02;17.47;37.04
77056;SHT30;67471;44.918;8.614;2023-11-18T09:50:17;17.17;37.32
77056;SHT30;67471;44.918;8.614;2023-11-18T09:53:22;16.79;38.17
77056;SHT30;67471;44.918;8.614;2023-11-18T10:00:00;16.02;39.67
77056;SHT30;67471;44.918;8.614;2023-11-18T10:03:14;15.83;40.01
77056;SHT30;67471;44.918;8.614;2023-11-18T10:06:19;15.70;39.33
77056;SHT30;67471;44.918;8.614;2023-11-18T10:09:26;15.54;39.77
77056;SHT30;67471;44.918;8.614;2023-11-18T10:12:42;15.57;40.32
77056;SHT30;67471;44.918;8.614;2023-11-18T10:15:51;15.70;40.21
77056;SHT30;67471;44.918;8.614;2023-11-18T10:18:55;15.76;40.34
77056;SHT30;67471;44.918;8.614;2023-11-18T10:22:04;15.77;40.84
77056;SHT30;67471;44.918;8.614;2023-11-18T10:25:07;15.96;40.70
77056;SHT30;67471;44.918;8.614;2023-11-18T10:31:36;16.01;40.93
77056;SHT30;67471;44.918;8.614;2023-11-18T10:34:40;16.07;40.61
77056;SHT30;67471;44.918;8.614;2023-11-18T10:37:44;16.08;40.94
77056;SHT30;67471;44.918;8.614;2023-11-18T10:40:48;16.10;40.46
77056;SHT30;67471;44.918;8.614;2023-11-18T10:44:08;15.98;40.24
77056;SHT30;67471;44.918;8.614;2023-11-18T10:47:17;15.91;41.01
77056;SHT30;67471;44.918;8.614;2023-11-18T10:50:22;16.01;41.07
77056;SHT30;67471;44.918;8.614;2023-11-18T10:53:26;16.18;40.70
77056;SHT30;67471;44.918;8.614;2023-11-18T10:56:32;16.21;40.84
77056;SHT30;67471;44.918;8.614;2023-11-18T11:00:05;16.19;41.25
77056;SHT30;67471;44.918;8.614;2023-11-18T11:03:16;16.24;41.01
77056;SHT30;67471;44.918;8.614;2023-11-18T11:06:23;16.41;40.88
77056;SHT30;67471;44.918;8.614;2023-11-18T11:09:27;16.62;39.91
77056;SHT30;67471;44.918;8.614;2023-11-18T11:12:43;16.68;40.16
77056;SHT30;67471;44.918;8.614;2023-11-18T11:15:56;16.75;40.18
77056;SHT30;67471;44.918;8.614;2023-11-18T11:19:04;16.84;39.48
77056;SHT30;67471;44.918;8.614;2023-11-18T11:22:15;16.97;39.21
77056;SHT30;67471;44.918;8.614;2023-11-18T11:25:48;16.90;38.58
77056;SHT30;67471;44.918;8.614;2023-11-18T11:32:25;17.35;38.81
77056;SHT30;67471;44.918;8.614;2023-11-18T11:35:37;17.37;38.50
77056;SHT30;67471;44.918;8.614;2023-11-18T11:38:44;17.21;38.99
77056;SHT30;67471;44.918;8.614;2023-11-18T11:41:53;17.24;39.37
77056;SHT30;67471;44.918;8.614;2023-11-18T11:45:01;17.19;39.14
77056;SHT30;67471;44.918;8.614;2023-11-18T11:48:07;17.21;39.04
77056;SHT30;67471;44.918;8.614;2023-11-18T11:51:52;17.37;38.93
77056;SHT30;67471;44.918;8.614;2023-11-18T11:58:33;17.58;37.62
77056;SHT30;67471;44.918;8.614;2023-11-18T12:01:40;17.47;37.79
77056;SHT30;67471;44.918;8.614;2023-11-18T12:04:50;17.67;37.90
77056;SHT30;67471;44.918;8.614;2023-11-18T12:07:58;17.58;37.86
77056;SHT30;67471;44.918;8.614;2023-11-18T12:11:02;17.47;38.13
77056;SHT30;67471;44.918;8.614;2023-11-18T12:14:08;17.41;37.48
77056;SHT30;67471;44.918;8.614;2023-11-18T12:17:27;17.27;37.89
77056;SHT30;67471;44.918;8.614;2023-11-18T12:20:43;17.21;37.81
77056;SHT30;67471;44.918;8.614;2023-11-18T12:24:17;17.40;36.32
77056;SHT30;67471;44.918;8.614;2023-11-18T12:27:45;17.51;36.60
77056;SHT30;67471;44.918;8.614;2023-11-18T12:30:55;17.20;35.00
77056;SHT30;67471;44.918;8.614;2023-11-18T12:34:08;17.26;36.65
77056;SHT30;67471;44.918;8.614;2023-11-18T12:40:56;17.21;36.35
77056;SHT30;67471;44.918;8.614;2023-11-18T12:44:16;17.30;36.06
77056;SHT30;67471;44.918;8.614;2023-11-18T12:47:28;17.14;34.96
77056;SHT30;67471;44.918;8.614;2023-11-18T12:50:34;17.34;35.18
77056;SHT30;67471;44.918;8.614;2023-11-18T12:53:39;17.37;35.46
77056;SHT30;67471;44.918;8.614;2023-11-18T12:56:44;17.21;34.90
77056;SHT30;67471;44.918;8.614;2023-11-18T12:59:50;17.14;35.26
77056;SHT30;67471;44.918;8.614;2023-11-18T13:02:54;17.24;36.29
77056;SHT30;67471;44.918;8.614;2023-11-18T13:05:58;17.20;35.60
77056;SHT30;67471;44.918;8.614;2023-11-18T13:09:03;17.20;34.88
77056;SHT30;67471;44.918;8.614;2023-11-18T13:12:14;17.24;34.75
77056;SHT30;67471;44.918;8.614;2023-11-18T13:15:24;17.31;35.34
77056;SHT30;67471;44.918;8.614;2023-11-18T13:18:28;17.31;35.45
77056;SHT30;67471;44.918;8.614;2023-11-18T13:21:44;17.41;35.73
77056;SHT30;67471;44.918;8.614;2023-11-18T13:24:48;17.27;35.11
77056;SHT30;67471;44.918;8.614;2023-11-18T13:27:53;17.26;34.51
77056;SHT30;67471;44.918;8.614;2023-11-18T13:30:58;17.35;34.29
77056;SHT30;67471;44.918;8.614;2023-11-18T13:34:01;17.51;33.88
77056;SHT30;67471;44.918;8.614;2023-11-18T13:37:08;17.58;33.64
77056;SHT30;67471;44.918;8.614;2023-11-18T13:40:12;17.54;33.19
77056;SHT30;67471;44.918;8.614;2023-11-18T13:43:16;17.59;32.36
77056;SHT30;67471;44.918;8.614;2023-11-18T13:46:21;17.58;33.08
77056;SHT30;67471;44.918;8.614;2023-11-18T13:49:28;17.52;32.56
77056;SHT30;67471;44.918;8.614;2023-11-18T13:52:33;17.52;33.29
77056;SHT30;67471;44.918;8.614;2023-11-18T13:55:37;17.57;33.13
77056;SHT30;67471;44.918;8.614;2023-11-18T13:58:42;17.57;32.89
77056;SHT30;67471;44.918;8.614;2023-11-18T14:01:46;17.52;33.30
77056;SHT30;67471;44.918;8.614;2023-11-18T14:04:50;17.55;33.34
77056;SHT30;67471;44.918;8.614;2023-11-18T14:07:54;17.45;34.02
77056;SHT30;67471;44.918;8.614;2023-11-18T14:11:03;17.34;34.25
77056;SHT30;67471;44.918;8.614;2023-11-18T14:14:08;17.26;34.07
77056;SHT30;67471;44.918;8.614;2023-11-18T14:17:12;17.16;34.79
77056;SHT30;67471;44.918;8.614;2023-11-18T14:20:16;17.13;34.64
77056;SHT30;67471;44.918;8.614;2023-11-18T14:23:19;17.11;34.83
77056;SHT30;67471;44.918;8.614;2023-11-18T14:26:25;17.06;35.16
77056;SHT30;67471;44.918;8.614;2023-11-18T14:29:29;17.04;35.71
77056;SHT30;67471;44.918;8.614;2023-11-18T14:32:33;16.97;35.51
77056;SHT30;67471;44.918;8.614;2023-11-18T14:35:37;16.93;35.54
77056;SHT30;67471;44.918;8.614;2023-11-18T14:38:43;17.10;35.57
77056;SHT30;67471;44.918;8.614;2023-11-18T14:41:48;17.00;35.71
77056;SHT30;67471;44.918;8.614;2023-11-18T14:44:52;16.99;36.00
77056;SHT30;67471;44.918;8.614;2023-11-18T14:47:56;17.00;36.22
77056;SHT30;67471;44.918;8.614;2023-11-18T14:51:00;16.96;36.34
77056;SHT30;67471;44.918;8.614;2023-11-18T14:54:04;17.00;36.81
77056;SHT30;67471;44.918;8.614;2023-11-18T14:57:09;16.93;36.87
77056;SHT30;67471;44.918;8.614;2023-11-18T15:00:13;16.91;37.21
77056;SHT30;67471;44.918;8.614;2023-11-18T15:03:25;16.73;37.73
77056;SHT30;67471;44.918;8.614;2023-11-18T15:06:29;16.65;37.87
77056;SHT30;67471;44.918;8.614;2023-11-18T15:09:34;16.56;38.05
77056;SHT30;67471;44.918;8.614;2023-11-18T15:12:39;16.33;37.66
77056;SHT30;67471;44.918;8.614;2023-11-18T15:15:45;16.17;38.04
77056;SHT30;67471;44.918;8.614;2023-11-18T15:18:50;15.93;38.02
77056;SHT30;67471;44.918;8.614;2023-11-18T15:21:55;15.80;38.64
77056;SHT30;67471;44.918;8.614;2023-11-18T15:24:59;15.49;40.17
77056;SHT30;67471;44.918;8.614;2023-11-18T15:28:03;15.46;40.34
77056;SHT30;67471;44.918;8.614;2023-11-18T15:31:13;15.33;40.40
77056;SHT30;67471;44.918;8.614;2023-11-18T15:34:17;15.32;40.28
77056;SHT30;67471;44.918;8.614;2023-11-18T15:37:23;15.40;40.58
77056;SHT30;67471;44.918;8.614;2023-11-18T15:40:27;15.16;41.03
77056;SHT30;67471;44.918;8.614;2023-11-18T15:43:31;15.12;41.54
77056;SHT30;67471;44.918;8.614;2023-11-18T15:46:35;15.18;41.77
77056;SHT30;67471;44.918;8.614;2023-11-18T15:49:41;15.03;42.28
77056;SHT30;67471;44.918;8.614;2023-11-18T15:52:46;15.15;42.24
77056;SHT30;67471;44.918;8.614;2023-11-18T15:55:51;15.13;42.39
77056;SHT30;67471;44.918;8.614;2023-11-18T15:58:56;15.09;43.11
77056;SHT30;67471;44.918;8.614;2023-11-18T16:01:59;15.01;43.60
77056;SHT30;67471;44.918;8.614;2023-11-18T16:05:03;14.96;44.73
77056;SHT30;67471;44.918;8.614;2023-11-18T16:08:08;14.30;44.86
77056;SHT30;67471;44.918;8.614;2023-11-18T16:11:12;14.03;44.93
77056;SHT30;67471;44.918;8.614;2023-11-18T16:14:15;14.19;45.51
77056;SHT30;67471;44.918;8.614;2023-11-18T16:17:19;14.36;44.70
77056;SHT30;67471;44.918;8.614;2023-11-18T16:20:26;14.51;44.57
77056;SHT30;67471;44.918;8.614;2023-11-18T16:23:30;14.45;44.93
77056;SHT30;67471;44.918;8.614;2023-11-18T16:26:38;14.48;45.27
77056;SHT30;67471;44.918;8.614;2023-11-18T16:29:44;14.44;45.98
77056;SHT30;67471;44.918;8.614;2023-11-18T16:32:47;14.42;46.35
77056;SHT30;67471;44.918;8.614;2023-11-18T16:35:51;14.42;46.61
77056;SHT30;67471;44.918;8.614;2023-11-18T16:38:56;14.33;47.55
77056;SHT30;67471;44.918;8.614;2023-11-18T16:42:02;14.19;47.25
77056;SHT30;67471;44.918;8.614;2023-11-18T16:45:07;14.20;47.75
77056;SHT30;67471;44.918;8.614;2023-11-18T16:48:12;14.19;47.73
77056;SHT30;67471;44.918;8.614;2023-11-18T16:51:15;13.83;48.49
77056;SHT30;67471;44.918;8.614;2023-11-18T16:54:23;13.69;49.56
77056;SHT30;67471;44.918;8.614;2023-11-18T16:57:27;13.79;49.49
77056;SHT30;67471;44.918;8.614;2023-11-18T17:00:30;13.58;51.21
77056;SHT30;67471;44.918;8.614;2023-11-18T17:03:36;13.47;51.90
77056;SHT30;67471;44.918;8.614;2023-11-18T17:06:40;13.28;51.98
77056;SHT30;67471;44.918;8.614;2023-11-18T17:09:45;13.28;51.99
77056;SHT30;67471;44.918;8.614;2023-11-18T17:12:49;13.18;52.23
77056;SHT30;67471;44.918;8.614;2023-11-18T17:15:53;13.07;52.32
77056;SHT30;67471;44.918;8.614;2023-11-18T17:18:56;12.91;52.57
77056;SHT30;67471;44.918;8.614;2023-11-18T17:22:00;12.91;52.65
77056;SHT30;67471;44.918;8.614;2023-11-18T17:25:08;12.75;53.09
77056;SHT30;67471;44.918;8.614;2023-11-18T17:28:19;12.79;53.06
77056;SHT30;67471;44.918;8.614;2023-11-18T17:31:22;12.79;53.26
77056;SHT30;67471;44.918;8.614;2023-11-18T17:34:28;12.70;53.57
77056;SHT30;67471;44.918;8.614;2023-11-18T17:37:32;12.67;53.78
77056;SHT30;67471;44.918;8.614;2023-11-18T17:40:35;12.50;54.36
77056;SHT30;67471;44.918;8.614;2023-11-18T17:43:39;12.48;54.69
77056;SHT30;67471;44.918;8.614;2023-11-18T17:46:44;12.42;55.49
77056;SHT30;67471;44.918;8.614;2023-11-18T17:49:47;12.45;55.10
77056;SHT30;67471;44.918;8.614;2023-11-18T17:52:51;12.49;55.05
77056;SHT30;67471;44.918;8.614;2023-11-18T17:55:55;12.46;55.25
77056;SHT30;67471;44.918;8.614;2023-11-18T17:58:59;12.43;55.15
77056;SHT30;67471;44.918;8.614;2023-11-18T18:02:03;12.35;55.63
77056;SHT30;67471;44.918;8.614;2023-11-18T18:05:10;12.14;56.66
77056;SHT30;67471;44.918;8.614;2023-11-18T18:08:16;12.15;56.77
77056;SHT30;67471;44.918;8.614;2023-11-18T18:11:22;12.12;56.99
77056;SHT30;67471;44.918;8.614;2023-11-18T18:14:25;12.11;57.53
77056;SHT30;67471;44.918;8.614;2023-11-18T18:17:29;12.11;57.48
77056;SHT30;67471;44.918;8.614;2023-11-18T18:20:33;12.10;57.57
77056;SHT30;67471;44.918;8.614;2023-11-18T18:23:37;11.36;59.23
77056;SHT30;67471;44.918;8.614;2023-11-18T18:26:41;11.16;60.00
77056;SHT30;67471;44.918;8.614;2023-11-18T18:29:45;11.46;59.25
77056;SHT30;67471;44.918;8.614;2023-11-18T18:32:49;11.63;58.49
77056;SHT30;67471;44.918;8.614;2023-11-18T18:35:54;11.77;57.65
77056;SHT30;67471;44.918;8.614;2023-11-18T18:38:58;11.78;57.13
77056;SHT30;67471;44.918;8.614;2023-11-18T18:42:02;11.84;57.23
77056;SHT30;67471;44.918;8.614;2023-11-18T18:45:07;11.87;57.99
77056;SHT30;67471;44.918;8.614;2023-11-18T18:48:11;11.92;58.28
77056;SHT30;67471;44.918;8.614;2023-11-18T18:51:15;11.81;58.73
77056;SHT30;67471;44.918;8.614;2023-11-18T18:54:19;11.85;58.94
77056;SHT30;67471;44.918;8.614;2023-11-18T18:57:23;11.77;59.57
77056;SHT30;67471;44.918;8.614;2023-11-18T19:00:27;11.36;61.06
77056;SHT30;67471;44.918;8.614;2023-11-18T19:03:32;11.54;60.93
77056;SHT30;67471;44.918;8.614;2023-11-18T19:06:36;11.61;61.05
77056;SHT30;67471;44.918;8.614;2023-11-18T19:09:42;11.53;61.24
77056;SHT30;67471;44.918;8.614;2023-11-18T19:12:46;11.39;62.22
77056;SHT30;67471;44.918;8.614;2023-11-18T19:15:50;11.47;61.99
77056;SHT30;67471;44.918;8.614;2023-11-18T19:18:55;11.46;61.97
77056;SHT30;67471;44.918;8.614;2023-11-18T19:21:59;11.43;61.99
77056;SHT30;67471;44.918;8.614;2023-11-18T19:25:03;11.37;60.45
77056;SHT30;67471;44.918;8.614;2023-11-18T19:28:07;11.36;58.27
77056;SHT30;67471;44.918;8.614;2023-11-18T19:31:12;11.39;57.44
77056;SHT30;67471;44.918;8.614;2023-11-18T19:34:16;11.40;56.48
77056;SHT30;67471;44.918;8.614;2023-11-18T19:37:19;11.43;55.14
77056;SHT30;67471;44.918;8.614;2023-11-18T19:40:24;11.40;55.15
77056;SHT30;67471;44.918;8.614;2023-11-18T19:43:28;11.39;54.93
77056;SHT30;67471;44.918;8.614;2023-11-18T19:46:31;11.39;55.63
77056;SHT30;67471;44.918;8.614;2023-11-18T19:49:35;11.05;56.36
77056;SHT30;67471;44.918;8.614;2023-11-18T19:52:39;11.03;59.25
77056;SHT30;67471;44.918;8.614;2023-11-18T19:55:43;11.13;61.96
77056;SHT30;67471;44.918;8.614;2023-11-18T19:58:47;10.92;62.86
77056;SHT30;67471;44.918;8.614;2023-11-18T20:01:52;10.89;62.30